Bolivar, Mississippi
Current Conditions -  °F | °C
As of 5:53 AM on Friday 19 Dec 2014 (Local Time) from KGLH Reporting Station
Overcast Overcast  
Wind Chill: 43°   Ceiling: 4400
Heat Index: 46°   Visibility: 9mi
Dew Point: 42°   Wind: 6mph
Humidity: 86%   Direction: 20°NNE
Pressure: 30.18"   Gusts: NA
Location:  33.6504°N, 91.0785°W
Report Text: KGLH 191153Z AUTO 02005KT 9SM OVC044 08/06 A3018 RMK AO2 SLP229 T00780056 10083 20078 53004
Loading
Personal Weather Stations






























Interactive Weather Map New forecast layout! Learn more

10-Day Weather Forecast

Advertisements
Track Severe Weather on mobile